Time;durP1;ratioP1;P1;durP2;ratioP2;P2;SDS_P1;SDS_P2;PMS_P1;PMS_P2;Temp;Humidity;BMP_temperature;BMP_pressure;BME280_temperature;BME280_humidity;BME280_pressure;Samples;Min_cycle;Max_cycle;Signal;HPM_P1;HPM_P2
2022/07/09 00:01:26;;;;;;;;;;;18.80;77.70;;;;;;5060702;28;19954;-76
2022/07/09 00:03:54;;;;;;;;;;;18.80;77.60;;;;;;5058038;28;19931;-75
2022/07/09 00:06:21;;;;;;;;;;;18.70;77.50;;;;;;5062908;28;20283;-75
2022/07/09 00:08:48;;;;;;;;;;;18.70;77.40;;;;;;5067537;28;20318;-76
2022/07/09 00:11:15;;;;;;;;;;;18.70;77.50;;;;;;5063686;28;20017;-74
2022/07/09 00:13:42;;;;;;;;;;;18.60;77.40;;;;;;5057634;28;19928;-76
2022/07/09 00:16:09;;;;;;;;;;;18.60;77.50;;;;;;5065423;28;19924;-75
2022/07/09 00:18:37;;;;;;;;;;;18.60;77.60;;;;;;5064400;28;19931;-75
2022/07/09 00:21:04;;;;;;;;;;;18.50;77.50;;;;;;5062400;28;20383;-74
2022/07/09 00:23:30;;;;;;;;;;;18.50;77.50;;;;;;5059976;28;19924;-76
2022/07/09 00:25:57;;;;;;;;;;;18.40;77.40;;;;;;5062291;28;19924;-75
2022/07/09 00:28:24;;;;;;;;;;;18.50;77.50;;;;;;5063232;28;21824;-75
2022/07/09 00:30:51;;;;;;;;;;;18.40;77.40;;;;;;5056771;28;19932;-75
2022/07/09 00:33:18;;;;;;;;;;;18.40;77.50;;;;;;5065206;28;19960;-75
2022/07/09 00:35:46;;;;;;;;;;;18.40;77.60;;;;;;5062085;28;19932;-76
2022/07/09 00:38:13;;;;;;;;;;;18.30;77.50;;;;;;5067782;28;19935;-76
2022/07/09 00:40:40;;;;;;;;;;;18.30;77.60;;;;;;5057959;28;20323;-75
2022/07/09 00:43:15;;;;;;;;;;;18.30;77.70;;;;;;5064296;28;19978;-74
2022/07/09 00:45:42;;;;;;;;;;;18.20;77.70;;;;;;5054364;28;19929;-75
2022/07/09 00:48:09;;;;;;;;;;;18.20;77.70;;;;;;5065033;28;19993;-77
2022/07/09 00:50:36;;;;;;;;;;;18.20;77.80;;;;;;5059596;28;19946;-77
2022/07/09 00:53:06;;;;;;;;;;;18.10;77.70;;;;;;5066612;28;19932;-77
2022/07/09 00:55:33;;;;;;;;;;;18.10;77.70;;;;;;5069990;28;19974;-75
2022/07/09 00:58:00;;;;;;;;;;;18.10;77.70;;;;;;5064683;28;19924;-76
2022/07/09 01:00:27;;;;;;;;;;;18.10;77.80;;;;;;5065960;28;19933;-75
2022/07/09 01:02:54;;;;;;;;;;;18.00;77.60;;;;;;5063128;28;19935;-75
2022/07/09 01:05:21;;;;;;;;;;;18.00;77.70;;;;;;5059396;28;20012;-74
2022/07/09 01:07:47;;;;;;;;;;;18.00;77.60;;;;;;5064534;28;20391;-75
2022/07/09 01:10:16;;;;;;;;;;;17.90;77.50;;;;;;5064398;28;19932;-76
2022/07/09 01:12:43;;;;;;;;;;;17.90;77.60;;;;;;5056838;28;20019;-77
2022/07/09 01:15:10;;;;;;;;;;;17.90;77.60;;;;;;5065976;28;19924;-75
2022/07/09 01:17:40;;;;;;;;;;;17.80;77.50;;;;;;5068077;28;19925;-74
2022/07/09 01:20:08;;;;;;;;;;;17.80;77.60;;;;;;5070591;28;19978;-74
2022/07/09 01:22:36;;;;;;;;;;;17.80;77.70;;;;;;5059887;28;19936;-75
2022/07/09 01:25:07;;;;;;;;;;;17.80;77.80;;;;;;5065618;28;19943;-75
2022/07/09 01:27:34;;;;;;;;;;;17.70;77.70;;;;;;5061392;28;19925;-75
2022/07/09 01:30:01;;;;;;;;;;;17.70;77.80;;;;;;5063410;28;19971;-75
2022/07/09 01:32:28;;;;;;;;;;;17.70;77.90;;;;;;5062354;28;19924;-75
2022/07/09 01:34:55;;;;;;;;;;;17.60;77.80;;;;;;5067200;28;19924;-75
2022/07/09 01:37:21;;;;;;;;;;;17.60;77.80;;;;;;5065745;28;19931;-75
2022/07/09 01:39:52;;;;;;;;;;;17.60;77.90;;;;;;5063400;28;19956;-76
2022/07/09 01:42:19;;;;;;;;;;;17.60;78.00;;;;;;5067640;28;20488;-75
2022/07/09 01:44:48;;;;;;;;;;;17.60;78.00;;;;;;5063880;28;19979;-75
2022/07/09 01:47:15;;;;;;;;;;;17.50;78.00;;;;;;5067269;28;19928;-75
2022/07/09 01:49:42;;;;;;;;;;;17.50;78.00;;;;;;5062379;28;20446;-75
2022/07/09 01:52:09;;;;;;;;;;;17.50;78.00;;;;;;5066647;28;19932;-76
2022/07/09 01:54:36;;;;;;;;;;;17.40;78.00;;;;;;5065985;28;20025;-75
2022/07/09 01:57:04;;;;;;;;;;;17.40;78.10;;;;;;5068766;28;19990;-75
2022/07/09 01:59:31;;;;;;;;;;;17.40;78.10;;;;;;5065598;28;20329;-74
2022/07/09 02:01:58;;;;;;;;;;;17.40;78.10;;;;;;5058497;28;20058;-75
2022/07/09 02:04:25;;;;;;;;;;;17.30;78.10;;;;;;5067273;28;20330;-75
2022/07/09 02:06:51;;;;;;;;;;;17.30;78.10;;;;;;5062768;28;19925;-73
2022/07/09 02:09:18;;;;;;;;;;;17.30;78.00;;;;;;5070769;28;20061;-73
2022/07/09 02:11:47;;;;;;;;;;;17.20;78.00;;;;;;5059760;28;20382;-72
2022/07/09 02:14:15;;;;;;;;;;;17.20;78.00;;;;;;5056034;28;20408;-75
2022/07/09 02:16:42;;;;;;;;;;;17.20;77.90;;;;;;5058754;28;19925;-75
2022/07/09 02:19:08;;;;;;;;;;;17.20;78.00;;;;;;5061687;28;19982;-75
2022/07/09 02:21:35;;;;;;;;;;;17.10;78.00;;;;;;5064340;28;20406;-76
2022/07/09 02:24:02;;;;;;;;;;;17.10;78.10;;;;;;5061267;28;20395;-75
2022/07/09 02:26:29;;;;;;;;;;;17.10;78.20;;;;;;5053240;28;19939;-75
2022/07/09 02:28:56;;;;;;;;;;;17.00;78.10;;;;;;5057051;28;19940;-74
2022/07/09 02:31:25;;;;;;;;;;;17.00;78.20;;;;;;5061826;28;19929;-75
2022/07/09 02:33:51;;;;;;;;;;;17.00;78.20;;;;;;5060694;28;21212;-75
2022/07/09 02:36:18;;;;;;;;;;;17.00;78.30;;;;;;5062475;28;19925;-75
2022/07/09 02:38:45;;;;;;;;;;;16.90;78.20;;;;;;5065451;28;20015;-75
2022/07/09 02:41:12;;;;;;;;;;;16.90;78.20;;;;;;5065540;28;19928;-76
2022/07/09 02:43:39;;;;;;;;;;;16.90;78.20;;;;;;5060230;28;19932;-74
2022/07/09 02:46:06;;;;;;;;;;;16.80;78.10;;;;;;5054831;28;19928;-76
2022/07/09 02:51:01;;;;;;;;;;;16.80;78.00;;;;;;5046204;28;20028;-74
2022/07/09 02:53:28;;;;;;;;;;;16.80;78.70;;;;;;5056314;28;19931;-77
2022/07/09 02:55:55;;;;;;;;;;;16.70;78.00;;;;;;5054430;28;19924;-75
2022/07/09 02:58:22;;;;;;;;;;;16.70;78.20;;;;;;5050055;28;19924;-72
2022/07/09 03:00:49;;;;;;;;;;;16.70;78.30;;;;;;5056885;28;19928;-72
2022/07/09 03:03:16;;;;;;;;;;;16.70;78.30;;;;;;5055123;28;20410;-74
2022/07/09 03:05:43;;;;;;;;;;;16.60;78.20;;;;;;5055629;28;19925;-71
2022/07/09 03:08:11;;;;;;;;;;;16.60;78.30;;;;;;5056889;28;19935;-73
2022/07/09 03:10:38;;;;;;;;;;;16.60;78.20;;;;;;5055866;28;19974;-72
2022/07/09 03:13:05;;;;;;;;;;;16.50;78.30;;;;;;5053789;28;19933;-73
2022/07/09 03:15:32;;;;;;;;;;;16.50;78.20;;;;;;5048909;28;19943;-73
2022/07/09 03:17:59;;;;;;;;;;;16.50;78.20;;;;;;5056642;28;19928;-73
2022/07/09 03:20:25;;;;;;;;;;;16.50;78.10;;;;;;5056893;28;19929;-72
2022/07/09 03:22:52;;;;;;;;;;;16.40;78.10;;;;;;5053257;28;20356;-73
2022/07/09 03:25:21;;;;;;;;;;;16.40;78.10;;;;;;5052239;28;20219;-72
2022/07/09 03:27:47;;;;;;;;;;;16.40;78.20;;;;;;5056580;28;19975;-72
2022/07/09 03:30:14;;;;;;;;;;;16.40;78.40;;;;;;5054820;28;19940;-73
2022/07/09 03:32:41;;;;;;;;;;;16.30;78.30;;;;;;5053725;28;19937;-71
2022/07/09 03:35:08;;;;;;;;;;;16.30;78.40;;;;;;5059181;28;19929;-73
2022/07/09 03:37:35;;;;;;;;;;;16.30;78.40;;;;;;5061616;28;19925;-72
2022/07/09 03:40:03;;;;;;;;;;;16.30;78.50;;;;;;5058682;28;20016;-73
2022/07/09 03:42:31;;;;;;;;;;;16.30;78.50;;;;;;5058989;28;19924;-72
2022/07/09 03:44:58;;;;;;;;;;;16.20;78.50;;;;;;5059020;28;20394;-72
2022/07/09 03:47:25;;;;;;;;;;;16.20;78.60;;;;;;5051826;28;19933;-72
2022/07/09 03:49:51;;;;;;;;;;;16.10;78.60;;;;;;5054466;28;19928;-72
2022/07/09 03:52:18;;;;;;;;;;;16.10;78.60;;;;;;5053057;28;21282;-72
2022/07/09 03:54:45;;;;;;;;;;;16.10;78.70;;;;;;5056681;28;20349;-72
2022/07/09 03:57:12;;;;;;;;;;;16.10;78.80;;;;;;5060130;28;20348;-73
2022/07/09 03:59:40;;;;;;;;;;;16.10;79.00;;;;;;5058287;28;19991;-72
2022/07/09 04:02:07;;;;;;;;;;;16.00;78.70;;;;;;5053926;28;19932;-73
2022/07/09 04:04:34;;;;;;;;;;;16.00;78.90;;;;;;5060868;28;19985;-72
2022/07/09 04:07:01;;;;;;;;;;;16.00;79.00;;;;;;5056272;28;19928;-72
2022/07/09 04:09:28;;;;;;;;;;;15.90;78.90;;;;;;5050998;28;19924;-72
2022/07/09 04:11:54;;;;;;;;;;;15.90;78.80;;;;;;5055895;28;19932;-75
2022/07/09 04:14:21;;;;;;;;;;;15.90;78.80;;;;;;5055428;28;19932;-76
2022/07/09 04:16:49;;;;;;;;;;;15.90;78.80;;;;;;5052542;28;19932;-76
2022/07/09 04:19:16;;;;;;;;;;;15.90;78.90;;;;;;5057139;28;19974;-76
2022/07/09 04:21:43;;;;;;;;;;;15.90;78.70;;;;;;5060216;28;19930;-76
2022/07/09 04:24:10;;;;;;;;;;;15.90;78.70;;;;;;5058017;28;19939;-75
2022/07/09 04:26:37;;;;;;;;;;;15.80;78.70;;;;;;5057299;28;19932;-75
2022/07/09 04:29:03;;;;;;;;;;;15.80;78.80;;;;;;5057239;28;19971;-74
2022/07/09 04:31:30;;;;;;;;;;;15.80;78.60;;;;;;5064026;28;19929;-74
2022/07/09 04:33:59;;;;;;;;;;;15.70;78.60;;;;;;5054756;28;19925;-75
2022/07/09 04:36:27;;;;;;;;;;;15.70;78.50;;;;;;5059359;28;19929;-74
2022/07/09 04:38:55;;;;;;;;;;;15.70;78.10;;;;;;5055775;28;20643;-76
2022/07/09 04:41:22;;;;;;;;;;;15.70;78.60;;;;;;5056539;28;19940;-75
2022/07/09 04:43:48;;;;;;;;;;;15.70;78.50;;;;;;5056378;28;20295;-74
2022/07/09 04:46:16;;;;;;;;;;;15.60;78.50;;;;;;5057118;28;19930;-74
2022/07/09 04:48:43;;;;;;;;;;;;;;;;;;5060767;28;19931;-77
2022/07/09 04:51:11;;;;;;;;;;;15.30;78.60;;;;;;5058901;28;19924;-75
2022/07/09 04:53:38;;;;;;;;;;;15.20;79.40;;;;;;5052223;28;19947;-75
2022/07/09 04:56:06;;;;;;;;;;;15.20;79.70;;;;;;5056742;28;21624;-72
2022/07/09 04:58:33;;;;;;;;;;;15.20;80.10;;;;;;5058390;28;19925;-72
2022/07/09 05:01:00;;;;;;;;;;;15.10;80.20;;;;;;5050780;28;19925;-72
2022/07/09 05:03:27;;;;;;;;;;;15.10;80.30;;;;;;5062124;28;19928;-73
2022/07/09 05:05:54;;;;;;;;;;;15.10;80.50;;;;;;5051699;28;20020;-72
2022/07/09 05:08:22;;;;;;;;;;;15.10;80.70;;;;;;5058550;28;19931;-72
2022/07/09 05:10:49;;;;;;;;;;;15.10;80.70;;;;;;5051729;28;19933;-73
2022/07/09 05:13:15;;;;;;;;;;;15.00;80.90;;;;;;5060422;28;19936;-72
2022/07/09 05:15:42;;;;;;;;;;;15.00;80.90;;;;;;5060630;28;19931;-72
2022/07/09 05:18:09;;;;;;;;;;;15.00;81.00;;;;;;5060022;28;19970;-72
2022/07/09 05:20:36;;;;;;;;;;;15.00;81.20;;;;;;5056380;28;20340;-72
2022/07/09 05:23:03;;;;;;;;;;;15.00;81.20;;;;;;5055534;28;20030;-72
2022/07/09 05:25:31;;;;;;;;;;;15.00;81.00;;;;;;5058082;28;19928;-72
2022/07/09 05:27:58;;;;;;;;;;;15.00;81.20;;;;;;5055889;28;19963;-72
2022/07/09 05:30:25;;;;;;;;;;;15.00;81.30;;;;;;5050165;28;20433;-72
2022/07/09 05:32:51;;;;;;;;;;;15.00;81.40;;;;;;5055506;28;20291;-72
2022/07/09 05:35:18;;;;;;;;;;;14.90;81.40;;;;;;5051655;28;20218;-72
2022/07/09 05:37:45;;;;;;;;;;;14.90;81.40;;;;;;5051134;28;20425;-72
2022/07/09 05:40:12;;;;;;;;;;;14.90;81.60;;;;;;5063417;28;19933;-72
2022/07/09 05:42:40;;;;;;;;;;;14.90;81.70;;;;;;5054780;28;20019;-72
2022/07/09 05:45:08;;;;;;;;;;;14.90;81.80;;;;;;5053110;28;19994;-72
2022/07/09 05:47:35;;;;;;;;;;;14.90;81.90;;;;;;5063384;28;19924;-72
2022/07/09 05:50:02;;;;;;;;;;;14.90;81.90;;;;;;5057039;28;19978;-72
2022/07/09 05:52:29;;;;;;;;;;;14.90;82.10;;;;;;5060636;28;19925;-72
2022/07/09 05:54:55;;;;;;;;;;;14.90;82.10;;;;;;5057776;28;20314;-71
2022/07/09 05:57:22;;;;;;;;;;;15.00;82.20;;;;;;5057296;28;19931;-72
2022/07/09 05:59:51;;;;;;;;;;;14.90;82.30;;;;;;5058970;28;19924;-72
2022/07/09 06:02:18;;;;;;;;;;;15.00;82.30;;;;;;5052392;28;19929;-71
2022/07/09 06:04:45;;;;;;;;;;;15.00;82.40;;;;;;5055651;28;19962;-72
2022/07/09 06:07:13;;;;;;;;;;;15.00;82.30;;;;;;5056229;28;20302;-73
2022/07/09 06:09:40;;;;;;;;;;;15.00;82.40;;;;;;5059033;28;19931;-76
2022/07/09 06:12:07;;;;;;;;;;;15.00;82.20;;;;;;5056193;28;20310;-76
2022/07/09 06:14:34;;;;;;;;;;;15.00;82.50;;;;;;5061783;28;19932;-76
2022/07/09 06:17:05;;;;;;;;;;;15.00;82.80;;;;;;5060525;28;20078;-75
2022/07/09 06:19:32;;;;;;;;;;;15.00;82.80;;;;;;5059556;28;19932;-77
2022/07/09 06:21:59;;;;;;;;;;;15.00;82.90;;;;;;5064691;28;19933;-76
2022/07/09 06:24:26;;;;;;;;;;;15.00;83.00;;;;;;5054577;28;20444;-75
2022/07/09 06:26:53;;;;;;;;;;;15.10;83.20;;;;;;5057553;28;19970;-75
2022/07/09 06:29:20;;;;;;;;;;;15.10;83.40;;;;;;5056247;28;19929;-76
2022/07/09 06:31:47;;;;;;;;;;;15.10;83.50;;;;;;5053774;28;19932;-73
2022/07/09 06:34:15;;;;;;;;;;;15.10;84.20;;;;;;5054836;28;19934;-75
2022/07/09 06:36:44;;;;;;;;;;;15.20;83.60;;;;;;5057359;28;19931;-74
2022/07/09 06:41:55;;;;;;;;;;;15.20;83.80;;;;;;5056917;28;19925;-71
2022/07/09 06:44:22;;;;;;;;;;;15.30;83.90;;;;;;5053271;28;19928;-71
2022/07/09 06:46:49;;;;;;;;;;;15.30;83.90;;;;;;5044810;28;19924;-73
2022/07/09 06:49:17;;;;;;;;;;;15.30;83.90;;;;;;5044702;28;19994;-73
2022/07/09 06:51:44;;;;;;;;;;;15.40;84.00;;;;;;5047345;28;19960;-72
2022/07/09 06:54:11;;;;;;;;;;;15.40;83.90;;;;;;5052393;28;20387;-72
2022/07/09 06:56:38;;;;;;;;;;;15.40;83.80;;;;;;5050485;28;19948;-72
2022/07/09 06:59:05;;;;;;;;;;;15.40;83.90;;;;;;5052729;28;19929;-75
2022/07/09 07:01:32;;;;;;;;;;;15.50;84.10;;;;;;5053542;28;19932;-77
2022/07/09 07:03:59;;;;;;;;;;;15.50;84.20;;;;;;5048722;28;19924;-73
2022/07/09 07:06:28;;;;;;;;;;;15.50;84.20;;;;;;5050351;28;20067;-74
2022/07/09 07:08:54;;;;;;;;;;;15.60;84.40;;;;;;5054287;28;20441;-75
2022/07/09 07:11:21;;;;;;;;;;;15.60;84.50;;;;;;5047797;28;19924;-74
2022/07/09 07:13:48;;;;;;;;;;;15.60;84.50;;;;;;5052503;28;19928;-74
2022/07/09 07:16:15;;;;;;;;;;;15.60;84.70;;;;;;5047157;28;19955;-75
2022/07/09 07:18:42;;;;;;;;;;;15.60;84.80;;;;;;5048816;28;19932;-74
2022/07/09 07:21:09;;;;;;;;;;;15.60;84.90;;;;;;5055257;28;19932;-74
2022/07/09 07:23:37;;;;;;;;;;;15.70;85.20;;;;;;5050997;28;19956;-73
2022/07/09 07:26:04;;;;;;;;;;;15.70;85.20;;;;;;5055564;28;19928;-74
2022/07/09 07:28:31;;;;;;;;;;;15.70;85.40;;;;;;5057150;28;19958;-74
2022/07/09 07:30:58;;;;;;;;;;;15.70;85.60;;;;;;5050859;28;19933;-72
2022/07/09 07:33:24;;;;;;;;;;;15.80;85.90;;;;;;5058032;28;19949;-75
2022/07/09 07:35:51;;;;;;;;;;;15.80;85.70;;;;;;5056153;28;19948;-74
2022/07/09 07:38:18;;;;;;;;;;;15.80;85.80;;;;;;5050713;28;19932;-74
2022/07/09 07:40:46;;;;;;;;;;;15.80;85.80;;;;;;5058438;28;19931;-75
2022/07/09 07:43:13;;;;;;;;;;;15.90;86.00;;;;;;5055697;28;20435;-75
2022/07/09 07:45:40;;;;;;;;;;;15.90;86.00;;;;;;5052832;28;19928;-73
2022/07/09 07:48:07;;;;;;;;;;;16.00;86.10;;;;;;5052021;28;19939;-74
2022/07/09 07:50:38;;;;;;;;;;;16.00;86.20;;;;;;5057505;28;19932;-74
2022/07/09 07:53:05;;;;;;;;;;;16.10;86.40;;;;;;5054313;28;19925;-73
2022/07/09 07:55:32;;;;;;;;;;;16.10;86.60;;;;;;5058034;28;19994;-73
2022/07/09 07:58:01;;;;;;;;;;;16.20;86.80;;;;;;5051558;28;19932;-73
2022/07/09 08:00:28;;;;;;;;;;;16.20;86.90;;;;;;5054566;28;20021;-74
2022/07/09 08:02:55;;;;;;;;;;;16.20;87.00;;;;;;5056355;28;19928;-74
2022/07/09 08:05:22;;;;;;;;;;;16.30;87.10;;;;;;5058498;28;20043;-74
2022/07/09 08:07:48;;;;;;;;;;;16.20;87.00;;;;;;5055391;28;19986;-73
2022/07/09 08:10:15;;;;;;;;;;;16.30;87.00;;;;;;5053236;28;19935;-73
2022/07/09 08:12:42;;;;;;;;;;;16.30;87.10;;;;;;5051655;28;20283;-73
2022/07/09 08:15:11;;;;;;;;;;;16.30;87.10;;;;;;5052725;28;19932;-72
2022/07/09 08:17:38;;;;;;;;;;;16.50;88.50;;;;;;5044859;28;19929;-73
2022/07/09 08:20:06;;;;;;;;;;;16.70;88.30;;;;;;5047451;28;19944;-74
2022/07/09 08:22:32;;;;;;;;;;;16.90;89.70;;;;;;5064623;28;20009;-77
2022/07/09 08:24:59;;;;;;;;;;;17.10;89.40;;;;;;5054817;28;20106;-75
2022/07/09 08:27:26;;;;;;;;;;;17.10;89.00;;;;;;5053481;28;20002;-77
2022/07/09 08:29:53;;;;;;;;;;;17.10;88.80;;;;;;5057883;28;19925;-75
2022/07/09 08:32:21;;;;;;;;;;;17.00;88.80;;;;;;5054816;28;19932;-75
2022/07/09 08:34:48;;;;;;;;;;;16.90;88.80;;;;;;5057001;28;19957;-74
2022/07/09 08:37:15;;;;;;;;;;;16.80;88.70;;;;;;5059307;28;19929;-77
2022/07/09 08:39:42;;;;;;;;;;;16.80;88.70;;;;;;5055401;28;19924;-75
2022/07/09 08:42:10;;;;;;;;;;;16.80;88.70;;;;;;5051213;28;19928;-77
2022/07/09 08:44:38;;;;;;;;;;;16.80;88.80;;;;;;5050329;28;20338;-78
2022/07/09 08:47:06;;;;;;;;;;;16.80;88.60;;;;;;5050200;28;19928;-76
2022/07/09 08:49:34;;;;;;;;;;;17.00;89.60;;;;;;5067837;28;19982;-78
2022/07/09 08:52:03;;;;;;;;;;;17.10;89.10;;;;;;5033499;28;20097;-77
2022/07/09 08:54:31;;;;;;;;;;;17.00;88.70;;;;;;5042514;28;20360;-74
2022/07/09 08:56:57;;;;;;;;;;;17.00;88.70;;;;;;5047899;28;19940;-77
2022/07/09 08:59:24;;;;;;;;;;;17.00;88.70;;;;;;5049782;28;19936;-75
2022/07/09 09:01:51;;;;;;;;;;;17.00;88.70;;;;;;5046324;28;20140;-76
2022/07/09 09:04:19;;;;;;;;;;;17.00;88.60;;;;;;5046093;28;19943;-76
2022/07/09 09:06:47;;;;;;;;;;;17.00;88.50;;;;;;5048921;28;19928;-78
2022/07/09 09:09:19;;;;;;;;;;;17.00;88.40;;;;;;5049924;28;19959;-74
2022/07/09 09:11:47;;;;;;;;;;;17.10;88.40;;;;;;5048091;28;20395;-77
2022/07/09 09:14:18;;;;;;;;;;;17.10;88.30;;;;;;5055261;28;19959;-75
2022/07/09 09:16:45;;;;;;;;;;;17.10;88.40;;;;;;5055524;28;19928;-75
2022/07/09 09:19:12;;;;;;;;;;;17.10;88.30;;;;;;5051698;28;19978;-75
2022/07/09 09:21:39;;;;;;;;;;;17.10;88.30;;;;;;5045270;28;20051;-76
2022/07/09 09:24:08;;;;;;;;;;;17.20;88.30;;;;;;5052803;28;19944;-77
2022/07/09 09:26:36;;;;;;;;;;;17.20;88.30;;;;;;5049911;28;20006;-77
2022/07/09 09:29:05;;;;;;;;;;;17.20;88.30;;;;;;5052779;28;20024;-76
2022/07/09 09:31:33;;;;;;;;;;;17.20;88.30;;;;;;5056616;28;19968;-78
2022/07/09 09:34:11;;;;;;;;;;;17.30;88.30;;;;;;5055506;28;19928;-74
2022/07/09 09:36:38;;;;;;;;;;;17.30;88.20;;;;;;5049972;28;19931;-74
2022/07/09 09:39:19;;;;;;;;;;;17.30;88.30;;;;;;5048265;28;19924;-74
2022/07/09 09:41:47;;;;;;;;;;;17.30;88.00;;;;;;5047739;28;19935;-74
2022/07/09 09:44:14;;;;;;;;;;;17.30;88.00;;;;;;5047698;28;20553;-75
2022/07/09 09:46:42;;;;;;;;;;;17.40;88.10;;;;;;5047500;28;19928;-74
2022/07/09 09:49:09;;;;;;;;;;;17.40;88.00;;;;;;5135073;22;19928;-77
2022/07/09 09:54:04;;;;;;;;;;;;;;;;;;5015547;28;19933;-75
2022/07/09 09:56:33;;;;;;;;;;;17.50;87.40;;;;;;5015036;28;19933;-75
2022/07/09 09:59:00;;;;;;;;;;;17.50;88.00;;;;;;5025104;28;19925;-79
2022/07/09 10:01:28;;;;;;;;;;;17.50;87.80;;;;;;5024646;28;20015;-77
2022/07/09 10:03:55;;;;;;;;;;;17.50;87.70;;;;;;5024216;28;19924;-76
2022/07/09 10:06:22;;;;;;;;;;;17.60;88.10;;;;;;5024634;28;19925;-78
2022/07/09 10:08:51;;;;;;;;;;;17.50;88.00;;;;;;5024327;28;20314;-76
2022/07/09 10:11:18;;;;;;;;;;;17.60;87.90;;;;;;5021408;28;19936;-78
2022/07/09 10:13:57;;;;;;;;;;;17.60;87.90;;;;;;5023380;28;19925;-76
2022/07/09 10:16:34;;;;;;;;;;;17.60;88.10;;;;;;5025312;28;19933;-77
2022/07/09 10:19:01;;;;;;;;;;;17.60;87.90;;;;;;5019441;28;20382;-78
2022/07/09 10:21:35;;;;;;;;;;;17.60;87.80;;;;;;5023061;28;19973;-76
2022/07/09 10:24:02;;;;;;;;;;;17.70;87.90;;;;;;5020169;28;19930;-78
2022/07/09 10:26:37;;;;;;;;;;;17.70;87.90;;;;;;5020136;28;19933;-75
2022/07/09 10:29:17;;;;;;;;;;;17.80;88.00;;;;;;5022612;28;19924;-75
2022/07/09 10:31:44;;;;;;;;;;;17.90;88.10;;;;;;5018039;28;19972;-76
2022/07/09 10:34:16;;;;;;;;;;;17.90;88.00;;;;;;5018963;28;20012;-75
2022/07/09 10:36:57;;;;;;;;;;;18.00;87.90;;;;;;5021875;28;19930;-77
2022/07/09 10:39:24;;;;;;;;;;;18.00;87.90;;;;;;5011750;28;20021;-76
2022/07/09 10:41:59;;;;;;;;;;;18.00;87.70;;;;;;5014685;28;19939;-75
2022/07/09 10:44:28;;;;;;;;;;;18.10;87.70;;;;;;5014372;28;20684;-77
2022/07/09 10:46:58;;;;;;;;;;;18.10;87.60;;;;;;5013755;28;20729;-75
2022/07/09 10:49:26;;;;;;;;;;;18.10;87.50;;;;;;5006991;28;19955;-75
2022/07/09 10:51:56;;;;;;;;;;;18.10;87.50;;;;;;5013836;28;20410;-75
2022/07/09 10:54:22;;;;;;;;;;;18.10;87.50;;;;;;5012996;28;19980;-76
2022/07/09 10:56:49;;;;;;;;;;;18.10;87.40;;;;;;5015025;28;20422;-75
2022/07/09 10:59:16;;;;;;;;;;;18.10;87.50;;;;;;5011497;28;21011;-74
2022/07/09 11:01:45;;;;;;;;;;;18.10;87.60;;;;;;5017820;28;19925;-74
2022/07/09 11:04:12;;;;;;;;;;;18.20;87.60;;;;;;5013675;28;20401;-74
2022/07/09 11:06:45;;;;;;;;;;;18.20;87.50;;;;;;5005304;28;19959;-73
2022/07/09 11:09:12;;;;;;;;;;;18.30;87.80;;;;;;5003461;28;19937;-74
2022/07/09 11:11:42;;;;;;;;;;;18.70;86.30;;;;;;5008816;28;19935;-74
2022/07/09 11:14:09;;;;;;;;;;;19.00;85.00;;;;;;4999361;28;19944;-73
2022/07/09 11:16:36;;;;;;;;;;;19.20;84.20;;;;;;4998767;28;20093;-74
2022/07/09 11:19:14;;;;;;;;;;;19.20;83.70;;;;;;5005233;28;19933;-73
2022/07/09 11:21:41;;;;;;;;;;;19.10;83.70;;;;;;4998038;28;20043;-72
2022/07/09 11:24:13;;;;;;;;;;;19.00;84.30;;;;;;5010319;28;20388;-73
2022/07/09 11:26:40;;;;;;;;;;;18.90;85.00;;;;;;5010705;28;20566;-72
2022/07/09 11:29:07;;;;;;;;;;;18.80;85.30;;;;;;5008666;28;19951;-73
2022/07/09 11:31:34;;;;;;;;;;;18.80;84.80;;;;;;5003021;28;19929;-72
2022/07/09 11:34:13;;;;;;;;;;;18.80;85.40;;;;;;5009033;28;19934;-72
2022/07/09 11:36:42;;;;;;;;;;;18.80;86.00;;;;;;5009674;28;20020;-73
2022/07/09 11:39:22;;;;;;;;;;;18.80;86.10;;;;;;5007184;28;19951;-72
2022/07/09 11:41:49;;;;;;;;;;;18.80;86.30;;;;;;5013693;28;19933;-74
2022/07/09 11:44:20;;;;;;;;;;;18.80;86.30;;;;;;5006829;28;19939;-73
2022/07/09 11:46:47;;;;;;;;;;;18.90;86.30;;;;;;5023847;28;19947;-72
2022/07/09 11:49:17;;;;;;;;;;;18.90;86.50;;;;;;5018651;28;20438;-73
2022/07/09 11:51:45;;;;;;;;;;;18.90;86.60;;;;;;5017611;28;19929;-71
2022/07/09 11:54:12;;;;;;;;;;;18.90;86.60;;;;;;5017365;28;20398;-72
2022/07/09 11:56:43;;;;;;;;;;;19.00;86.60;;;;;;5017678;28;19944;-74
2022/07/09 11:59:10;;;;;;;;;;;19.00;86.60;;;;;;5018710;28;20370;-73
2022/07/09 12:01:37;;;;;;;;;;;19.00;86.30;;;;;;5020723;28;19977;-73
2022/07/09 12:04:04;;;;;;;;;;;19.00;86.30;;;;;;5019178;28;19956;-73
2022/07/09 12:06:33;;;;;;;;;;;19.00;86.50;;;;;;5011434;28;20206;-73
2022/07/09 12:09:01;;;;;;;;;;;19.10;86.70;;;;;;5013234;28;20383;-74
2022/07/09 12:11:29;;;;;;;;;;;19.10;86.70;;;;;;5008543;28;19932;-71
2022/07/09 12:13:56;;;;;;;;;;;19.10;86.40;;;;;;5002734;28;20011;-73
2022/07/09 12:16:23;;;;;;;;;;;19.10;86.40;;;;;;5005595;28;19925;-74
2022/07/09 12:18:49;;;;;;;;;;;19.10;85.60;;;;;;5013958;28;20296;-73
2022/07/09 12:21:16;;;;;;;;;;;19.20;85.70;;;;;;5019164;28;19932;-73
2022/07/09 12:23:43;;;;;;;;;;;19.20;85.70;;;;;;5013445;28;19979;-73
2022/07/09 12:26:11;;;;;;;;;;;19.20;85.10;;;;;;5014630;28;19924;-74
2022/07/09 12:28:38;;;;;;;;;;;19.20;85.40;;;;;;5011159;28;20112;-74
2022/07/09 12:31:05;;;;;;;;;;;19.30;86.00;;;;;;5019541;28;19952;-73
2022/07/09 12:33:32;;;;;;;;;;;19.30;85.80;;;;;;5016471;28;19925;-73
2022/07/09 12:35:59;;;;;;;;;;;19.30;85.30;;;;;;5015878;28;20015;-73
2022/07/09 12:38:26;;;;;;;;;;;19.30;84.80;;;;;;5009957;28;19925;-73
2022/07/09 12:40:53;;;;;;;;;;;19.30;85.20;;;;;;5012356;28;19929;-74
2022/07/09 12:43:21;;;;;;;;;;;19.40;85.20;;;;;;5019090;28;21421;-73
2022/07/09 12:45:48;;;;;;;;;;;19.40;85.50;;;;;;5016251;28;20018;-74
2022/07/09 12:48:14;;;;;;;;;;;19.50;86.00;;;;;;5014069;28;19925;-73
2022/07/09 12:50:41;;;;;;;;;;;19.50;86.10;;;;;;5010014;28;19984;-73
2022/07/09 12:53:08;;;;;;;;;;;19.50;86.30;;;;;;5015732;28;20370;-74
2022/07/09 12:55:35;;;;;;;;;;;19.60;86.50;;;;;;5008895;28;20474;-74
2022/07/09 12:58:02;;;;;;;;;;;19.60;86.20;;;;;;5022055;28;19948;-73
2022/07/09 13:00:30;;;;;;;;;;;19.60;86.50;;;;;;5013769;28;20027;-74
2022/07/09 13:02:57;;;;;;;;;;;19.60;85.60;;;;;;5017038;28;19925;-74
2022/07/09 13:05:24;;;;;;;;;;;19.70;85.70;;;;;;5015079;28;19924;-73
2022/07/09 13:07:50;;;;;;;;;;;19.70;85.30;;;;;;5013147;28;19936;-73
2022/07/09 13:10:17;;;;;;;;;;;19.70;85.20;;;;;;5016724;28;19936;-73
2022/07/09 13:12:44;;;;;;;;;;;19.70;85.10;;;;;;5014748;28;20985;-74
2022/07/09 13:15:11;;;;;;;;;;;19.80;85.20;;;;;;5025869;28;19931;-74
2022/07/09 13:17:39;;;;;;;;;;;19.80;85.20;;;;;;5021366;28;19929;-74
2022/07/09 13:20:07;;;;;;;;;;;19.90;85.00;;;;;;5022189;28;20372;-74
2022/07/09 13:22:34;;;;;;;;;;;19.90;85.70;;;;;;5019366;28;21375;-74
2022/07/09 13:25:01;;;;;;;;;;;19.90;85.00;;;;;;5022995;28;20397;-74
2022/07/09 13:27:28;;;;;;;;;;;20.00;85.20;;;;;;5023173;28;19925;-73
2022/07/09 13:29:55;;;;;;;;;;;20.00;85.00;;;;;;5027339;28;20016;-74
2022/07/09 13:32:22;;;;;;;;;;;20.00;85.20;;;;;;5022624;28;20014;-73
2022/07/09 13:34:51;;;;;;;;;;;20.00;84.90;;;;;;5021011;28;20011;-74
2022/07/09 13:37:18;;;;;;;;;;;20.10;85.20;;;;;;5022853;28;20308;-73
2022/07/09 13:39:45;;;;;;;;;;;20.10;84.90;;;;;;5017733;28;19948;-74
2022/07/09 13:42:11;;;;;;;;;;;20.10;84.80;;;;;;5024505;28;19957;-74
2022/07/09 13:44:38;;;;;;;;;;;20.10;85.00;;;;;;5012439;28;20462;-74
2022/07/09 13:47:05;;;;;;;;;;;20.20;84.70;;;;;;5016377;28;20248;-74
2022/07/09 13:49:33;;;;;;;;;;;20.20;85.00;;;;;;5016203;28;19949;-73
2022/07/09 13:52:01;;;;;;;;;;;20.20;84.70;;;;;;5025447;28;19928;-74
2022/07/09 13:54:28;;;;;;;;;;;20.20;84.40;;;;;;5018288;28;19957;-74
2022/07/09 13:56:56;;;;;;;;;;;20.20;84.30;;;;;;5013341;28;19951;-73
2022/07/09 13:59:22;;;;;;;;;;;20.30;84.20;;;;;;5017207;28;20635;-78
2022/07/09 14:01:49;;;;;;;;;;;20.30;84.20;;;;;;5013858;28;19929;-78
2022/07/09 14:04:16;;;;;;;;;;;20.30;84.50;;;;;;5015436;28;20481;-75
2022/07/09 14:06:43;;;;;;;;;;;20.40;84.80;;;;;;5023500;28;22312;-78
2022/07/09 14:09:11;;;;;;;;;;;20.40;84.90;;;;;;5013283;28;19972;-75
2022/07/09 14:11:38;;;;;;;;;;;20.40;84.80;;;;;;5010923;28;19925;-75
2022/07/09 14:14:05;;;;;;;;;;;20.40;84.80;;;;;;5009436;28;19940;-75
2022/07/09 14:16:32;;;;;;;;;;;20.50;84.30;;;;;;5016181;28;19938;-74
2022/07/09 14:18:59;;;;;;;;;;;20.50;84.40;;;;;;5014242;28;20504;-77
2022/07/09 14:21:25;;;;;;;;;;;20.60;84.70;;;;;;5007463;28;19972;-75
2022/07/09 14:23:52;;;;;;;;;;;20.50;84.30;;;;;;5012685;28;19933;-74
2022/07/09 14:26:20;;;;;;;;;;;20.60;84.20;;;;;;5013874;28;20011;-73
2022/07/09 14:28:47;;;;;;;;;;;20.60;83.80;;;;;;5006778;28;20165;-75